Time;durP1;ratioP1;P1;durP2;ratioP2;P2;SDS_P1;SDS_P2;PMS_P1;PMS_P2;Temp;Humidity;BMP_temperature;BMP_pressure;BME280_temperature;BME280_humidity;BME280_pressure;Samples;Min_cycle;Max_cycle;Signal;HPM_P1;HPM_P2
2024/04/09 00:02:07;;;;;;;17.10;5.27;;;25.90;38.00;;;;;;5474676;26;20705;-60
2024/04/09 00:04:36;;;;;;;29.03;5.97;;;26.00;37.80;;;;;;5482929;26;20231;-59
2024/04/09 00:07:02;;;;;;;23.20;6.83;;;26.00;37.50;;;;;;5482234;26;21027;-58
2024/04/09 00:09:30;;;;;;;29.50;6.10;;;26.10;37.60;;;;;;5482314;26;20572;-60
2024/04/09 00:11:58;;;;;;;17.90;6.30;;;26.30;37.40;;;;;;5484127;26;20477;-59
2024/04/09 00:14:24;;;;;;;17.60;5.10;;;26.30;37.40;;;;;;5480463;26;20468;-59
2024/04/09 00:16:53;;;;;;;19.23;5.40;;;26.40;37.30;;;;;;5480598;26;20464;-59
2024/04/09 00:19:23;;;;;;;23.43;5.40;;;26.40;36.90;;;;;;5470734;26;20892;-57
2024/04/09 00:21:52;;;;;;;23.40;6.63;;;26.50;37.30;;;;;;5470183;26;20537;-58
2024/04/09 00:24:18;;;;;;;18.97;5.50;;;26.50;37.80;;;;;;5470755;26;20598;-57
2024/04/09 00:26:44;;;;;;;28.30;6.20;;;26.50;37.90;;;;;;5469826;26;20493;-59
2024/04/09 00:29:13;;;;;;;21.50;5.90;;;26.40;38.10;;;;;;5437266;26;20525;-58
2024/04/09 00:31:39;;;;;;;24.93;5.67;;;26.40;38.30;;;;;;5473091;26;20622;-58
2024/04/09 00:34:06;;;;;;;21.13;5.23;;;26.40;38.40;;;;;;5473023;26;20473;-58
2024/04/09 00:36:34;;;;;;;20.30;4.47;;;26.40;38.40;;;;;;5469442;26;20248;-58
2024/04/09 00:39:00;;;;;;;17.47;5.20;;;26.30;38.70;;;;;;5477907;26;20472;-57
2024/04/09 00:41:26;;;;;;;16.07;4.83;;;26.20;38.70;;;;;;5481200;26;20924;-57
2024/04/09 00:43:52;;;;;;;15.97;5.07;;;26.20;38.60;;;;;;5480177;26;20549;-59
2024/04/09 00:46:19;;;;;;;16.73;4.87;;;26.20;38.50;;;;;;5483687;26;20502;-58
2024/04/09 00:48:47;;;;;;;20.10;5.80;;;26.20;38.60;;;;;;5482447;26;20827;-56
2024/04/09 00:51:15;;;;;;;22.10;6.23;;;26.20;38.60;;;;;;5483443;26;20505;-59
2024/04/09 00:53:44;;;;;;;21.40;6.33;;;26.10;38.80;;;;;;5482885;26;20530;-59
2024/04/09 00:56:11;;;;;;;22.33;5.60;;;26.10;39.00;;;;;;5480356;26;20540;-58
2024/04/09 00:58:36;;;;;;;27.23;4.87;;;26.10;39.10;;;;;;5481044;26;20477;-58
2024/04/09 01:01:03;;;;;;;23.60;6.20;;;26.00;39.40;;;;;;5471432;26;20574;-58
2024/04/09 01:03:30;;;;;;;25.00;7.30;;;26.00;39.40;;;;;;5483303;26;20394;-56
2024/04/09 01:05:56;;;;;;;15.93;4.77;;;26.00;39.50;;;;;;5481172;26;20457;-58
2024/04/09 01:08:22;;;;;;;18.23;5.47;;;25.80;39.60;;;;;;5479349;26;20824;-55
2024/04/09 01:10:48;;;;;;;17.20;4.80;;;25.80;40.20;;;;;;5480137;26;20517;-59
2024/04/09 01:13:14;;;;;;;14.50;4.87;;;25.70;40.70;;;;;;5479424;26;20243;-56
2024/04/09 01:15:39;;;;;;;23.13;5.43;;;25.50;41.40;;;;;;5478854;26;20523;-58
2024/04/09 01:18:05;;;;;;;15.70;4.73;;;25.50;41.10;;;;;;5482200;26;20611;-59
2024/04/09 01:20:31;;;;;;;16.87;4.60;;;25.60;40.50;;;;;;5482109;26;20400;-59
2024/04/09 01:22:56;;;;;;;21.53;5.57;;;25.50;40.70;;;;;;5478659;26;20813;-56
2024/04/09 01:25:22;;;;;;;17.03;5.07;;;25.50;40.70;;;;;;5466644;26;20278;-57
2024/04/09 01:27:47;;;;;;;22.30;7.00;;;25.50;40.90;;;;;;5469156;26;20243;-58
2024/04/09 01:30:13;;;;;;;15.93;4.90;;;25.40;41.20;;;;;;5468827;26;20236;-58
2024/04/09 01:32:40;;;;;;;17.93;6.07;;;25.40;41.20;;;;;;5472771;26;20247;-58
2024/04/09 01:35:06;;;;;;;17.90;5.47;;;25.40;40.70;;;;;;5472867;26;20273;-59
2024/04/09 01:37:38;;;;;;;19.23;5.60;;;25.40;40.30;;;;;;5465749;26;20480;-60
2024/04/09 01:40:04;;;;;;;16.87;4.40;;;25.50;40.10;;;;;;5469470;26;20515;-59
2024/04/09 01:42:30;;;;;;;18.07;4.93;;;25.50;40.10;;;;;;5466022;26;20539;-59
2024/04/09 01:44:55;;;;;;;25.83;7.03;;;25.50;40.10;;;;;;5467522;26;20464;-59
2024/04/09 01:47:21;;;;;;;20.97;5.60;;;25.50;40.60;;;;;;5468570;26;20255;-59
2024/04/09 01:49:47;;;;;;;23.73;5.63;;;25.50;41.00;;;;;;5469989;26;20247;-59
2024/04/09 01:52:14;;;;;;;21.07;5.00;;;25.50;41.00;;;;;;5472455;26;20770;-57
2024/04/09 01:54:43;;;;;;;21.53;5.23;;;25.20;41.50;;;;;;5467942;26;20533;-58
2024/04/09 01:57:10;;;;;;;21.80;6.33;;;25.30;41.50;;;;;;5465558;26;20488;-59
2024/04/09 01:59:36;;;;;;;22.73;6.37;;;25.30;41.10;;;;;;5469070;26;20543;-60
2024/04/09 02:02:02;;;;;;;10.07;4.30;;;25.30;41.30;;;;;;5470551;26;20576;-59
2024/04/09 02:04:27;;;;;;;17.97;5.40;;;25.20;41.50;;;;;;5467167;26;20485;-58
2024/04/09 02:06:53;;;;;;;25.77;5.73;;;25.10;41.50;;;;;;5471418;26;20617;-57
2024/04/09 02:09:19;;;;;;;29.73;7.23;;;25.00;42.00;;;;;;5468637;26;20301;-57
2024/04/09 02:11:45;;;;;;;20.97;5.37;;;25.00;41.70;;;;;;5468519;26;20702;-59
2024/04/09 02:14:10;;;;;;;17.77;5.10;;;24.90;41.90;;;;;;5466059;26;20239;-58
2024/04/09 02:16:36;;;;;;;17.80;4.50;;;24.90;42.60;;;;;;5469182;26;20249;-60
2024/04/09 02:19:03;;;;;;;19.03;5.23;;;24.90;42.40;;;;;;5463298;26;20625;-58
2024/04/09 02:21:31;;;;;;;21.50;5.00;;;25.00;42.00;;;;;;5469645;26;20484;-59
2024/04/09 02:23:56;;;;;;;21.43;5.00;;;25.00;41.80;;;;;;5468505;26;20452;-59
2024/04/09 02:26:24;;;;;;;23.63;5.30;;;25.10;42.00;;;;;;5467048;26;20823;-57
2024/04/09 02:28:50;;;;;;;15.40;5.47;;;24.80;42.70;;;;;;5470010;26;20427;-58
2024/04/09 02:31:16;;;;;;;24.60;6.13;;;24.60;43.40;;;;;;5466691;26;21126;-58
2024/04/09 02:33:41;;;;;;;15.63;4.93;;;24.50;43.90;;;;;;5466666;26;20511;-55
2024/04/09 02:36:09;;;;;;;21.87;6.00;;;24.30;44.40;;;;;;5464498;26;20244;-58
2024/04/09 02:38:36;;;;;;;16.43;5.10;;;24.30;45.10;;;;;;5471366;26;20621;-57
2024/04/09 02:41:14;;;;;;;15.73;5.60;;;24.30;44.60;;;;;;5480238;26;20528;-57
2024/04/09 02:43:40;;;;;;;12.00;5.57;;;24.40;44.30;;;;;;5480847;26;20476;-60
2024/04/09 02:46:06;;;;;;;16.00;4.83;;;24.40;44.30;;;;;;5480966;26;20885;-58
2024/04/09 02:48:31;;;;;;;18.90;4.27;;;24.40;44.10;;;;;;5476865;26;20267;-58
2024/04/09 02:50:59;;;;;;;19.70;4.97;;;24.50;43.90;;;;;;5481212;26;20240;-59
2024/04/09 02:53:25;;;;;;;18.23;5.17;;;24.50;43.60;;;;;;5481144;26;20569;-59
2024/04/09 02:55:59;;;;;;;19.93;5.20;;;24.50;43.90;;;;;;5479559;26;20590;-60
2024/04/09 02:58:25;;;;;;;19.93;4.80;;;24.50;43.90;;;;;;5477484;26;20721;-59
2024/04/09 03:00:50;;;;;;;15.90;5.50;;;24.50;43.60;;;;;;5479701;26;20555;-60
2024/04/09 03:03:16;;;;;;;23.00;4.60;;;24.60;43.40;;;;;;5478334;26;20247;-59
2024/04/09 03:05:41;;;;;;;17.37;5.17;;;24.60;43.10;;;;;;5477750;26;20352;-58
2024/04/09 03:08:07;;;;;;;15.30;5.00;;;24.70;43.00;;;;;;5478693;26;20320;-59
2024/04/09 03:10:33;;;;;;;20.87;4.53;;;24.80;42.90;;;;;;5483312;26;20333;-57
2024/04/09 03:12:59;;;;;;;21.23;5.33;;;24.90;42.80;;;;;;5482488;26;20286;-59
2024/04/09 03:15:25;;;;;;;16.37;5.70;;;24.60;43.50;;;;;;5481968;26;20471;-58
2024/04/09 03:17:52;;;;;;;15.63;5.07;;;24.10;44.10;;;;;;5483314;26;20291;-57
2024/04/09 03:20:17;;;;;;;17.10;4.30;;;24.20;44.90;;;;;;5480506;26;20763;-58
2024/04/09 03:22:43;;;;;;;12.27;5.17;;;24.20;43.90;;;;;;5483283;26;20453;-59
2024/04/09 03:25:09;;;;;;;21.53;4.80;;;24.30;43.60;;;;;;5479450;26;20239;-59
2024/04/09 03:27:35;;;;;;;20.53;5.17;;;24.40;43.00;;;;;;5480628;26;20243;-59
2024/04/09 03:30:03;;;;;;;17.63;5.63;;;24.50;42.60;;;;;;5470366;26;20290;-59
2024/04/09 03:32:28;;;;;;;15.43;5.57;;;24.60;42.00;;;;;;5472064;26;20460;-55
2024/04/09 03:34:54;;;;;;;22.77;6.47;;;24.60;41.80;;;;;;5449374;26;20589;-59
2024/04/09 03:37:20;;;;;;;10.53;4.70;;;24.60;41.90;;;;;;5477641;26;20670;-58
2024/04/09 03:39:45;;;;;;;16.60;5.87;;;24.60;41.50;;;;;;5475336;26;20247;-59
2024/04/09 03:42:11;;;;;;;18.23;5.80;;;24.60;41.70;;;;;;5470206;26;20340;-59
2024/04/09 03:44:36;;;;;;;13.10;4.73;;;24.70;41.80;;;;;;5469469;26;20286;-57
2024/04/09 03:47:06;;;;;;;17.57;4.50;;;24.70;41.70;;;;;;5469034;26;20274;-55
2024/04/09 03:49:34;;;;;;;13.93;4.00;;;24.80;41.80;;;;;;5469183;26;20231;-59
2024/04/09 03:52:00;;;;;;;14.37;4.93;;;24.80;41.80;;;;;;5468320;26;20819;-58
2024/04/09 03:54:26;;;;;;;16.60;4.63;;;24.80;41.90;;;;;;5475281;26;20484;-58
2024/04/09 03:56:52;;;;;;;23.50;5.23;;;24.90;42.10;;;;;;5469953;26;20999;-58
2024/04/09 03:59:18;;;;;;;14.57;4.57;;;24.90;41.90;;;;;;5468568;26;20277;-58
2024/04/09 04:01:43;;;;;;;12.13;4.67;;;24.90;41.60;;;;;;5476027;26;20994;-60
2024/04/09 04:04:09;;;;;;;19.17;5.63;;;24.90;41.60;;;;;;5480659;26;20259;-59
2024/04/09 04:06:34;;;;;;;18.83;7.13;;;24.90;41.50;;;;;;5483585;26;20289;-58
2024/04/09 04:09:00;;;;;;;9.03;4.07;;;24.80;41.30;;;;;;5482878;26;20759;-59
2024/04/09 04:11:25;;;;;;;9.17;3.63;;;24.80;41.70;;;;;;5483851;26;20240;-59
2024/04/09 04:13:51;;;;;;;12.47;5.03;;;24.80;41.50;;;;;;5483027;26;20273;-58
2024/04/09 04:16:18;;;;;;;12.40;4.50;;;24.80;41.10;;;;;;5483953;26;20586;-57
2024/04/09 04:18:45;;;;;;;18.30;5.97;;;24.80;40.70;;;;;;5476577;26;20520;-59
2024/04/09 04:21:15;;;;;;;13.43;5.43;;;24.80;40.80;;;;;;5471144;26;20472;-58
2024/04/09 04:23:46;;;;;;;24.87;5.60;;;24.80;40.90;;;;;;5470222;26;20519;-56
2024/04/09 04:26:39;;;;;;;17.00;4.90;;;24.70;41.40;;;;;;5472571;26;20457;-58
2024/04/09 04:29:05;;;;;;;15.43;4.57;;;24.70;41.40;;;;;;5460884;26;20535;-56
2024/04/09 04:31:31;;;;;;;24.33;4.93;;;24.70;41.20;;;;;;5471514;26;21201;-58
2024/04/09 04:33:57;;;;;;;15.17;4.80;;;24.60;41.20;;;;;;5465886;26;20751;-57
2024/04/09 04:36:22;;;;;;;14.00;4.70;;;24.60;41.50;;;;;;5470097;26;20740;-57
2024/04/09 04:38:49;;;;;;;13.50;5.07;;;24.60;41.60;;;;;;5471530;26;20302;-59
2024/04/09 04:41:14;;;;;;;19.13;4.70;;;24.60;41.90;;;;;;5483479;26;20308;-58
2024/04/09 04:43:40;;;;;;;10.03;4.80;;;24.60;41.80;;;;;;5483233;26;20477;-57
2024/04/09 04:46:09;;;;;;;10.37;3.67;;;24.70;41.60;;;;;;5483149;26;20265;-58
2024/04/09 04:48:35;;;;;;;17.50;6.30;;;24.70;42.30;;;;;;5478717;26;20239;-59
2024/04/09 04:51:00;;;;;;;21.80;4.90;;;24.70;41.60;;;;;;5482917;26;20520;-57
2024/04/09 04:53:26;;;;;;;21.00;5.00;;;24.90;40.70;;;;;;5483360;26;20235;-59
2024/04/09 04:55:52;;;;;;;14.47;5.03;;;24.30;40.20;;;;;;5481706;26;20266;-59
2024/04/09 04:58:21;;;;;;;22.03;4.93;;;24.20;40.30;;;;;;5482754;26;20279;-59
2024/04/09 05:00:47;;;;;;;18.60;5.87;;;24.00;40.70;;;;;;5482931;26;20469;-59
2024/04/09 05:03:13;;;;;;;15.00;5.80;;;24.00;41.00;;;;;;5483380;26;20480;-59
2024/04/09 05:05:39;;;;;;;17.93;4.80;;;24.00;41.10;;;;;;5481218;26;20504;-59
2024/04/09 05:08:04;;;;;;;15.60;4.80;;;23.90;41.10;;;;;;5478167;26;20635;-58
2024/04/09 05:10:30;;;;;;;17.17;5.90;;;23.90;41.30;;;;;;5481461;26;20700;-57
2024/04/09 05:12:56;;;;;;;12.80;5.13;;;23.80;41.40;;;;;;5479141;26;20227;-60
2024/04/09 05:15:22;;;;;;;19.37;4.73;;;23.70;41.70;;;;;;5481824;26;20331;-58
2024/04/09 05:17:49;;;;;;;16.30;4.13;;;23.70;41.80;;;;;;5478924;26;20266;-58
2024/04/09 05:20:16;;;;;;;15.10;3.90;;;23.60;41.70;;;;;;5482477;26;20464;-58
2024/04/09 05:22:44;;;;;;;15.30;3.53;;;23.30;42.00;;;;;;5482912;26;20460;-58
2024/04/09 05:25:11;;;;;;;9.60;4.10;;;23.10;42.60;;;;;;5482296;26;20515;-59
2024/04/09 05:27:37;;;;;;;14.40;4.30;;;23.10;42.90;;;;;;5482259;26;20473;-56
2024/04/09 05:30:03;;;;;;;13.80;3.67;;;23.00;43.30;;;;;;5464957;26;20468;-56
2024/04/09 05:32:29;;;;;;;9.40;3.73;;;23.00;43.40;;;;;;5481762;26;20468;-58
2024/04/09 05:34:58;;;;;;;10.23;2.80;;;23.00;43.60;;;;;;5469172;26;20517;-58
2024/04/09 05:37:24;;;;;;;11.03;3.03;;;22.90;43.80;;;;;;5470289;26;20294;-59
2024/04/09 05:39:50;;;;;;;16.23;4.10;;;22.90;43.80;;;;;;5480102;26;20468;-57
2024/04/09 05:42:16;;;;;;;9.07;3.50;;;22.90;43.90;;;;;;5482475;26;20464;-57
2024/04/09 05:44:42;;;;;;;11.90;3.40;;;23.00;43.90;;;;;;5478849;26;20472;-57
2024/04/09 05:47:08;;;;;;;9.03;2.70;;;23.10;44.10;;;;;;5481260;26;20284;-59
2024/04/09 05:49:34;;;;;;;10.53;3.00;;;23.10;44.10;;;;;;5469295;26;20473;-57
2024/04/09 05:52:00;;;;;;;8.60;2.40;;;22.90;44.30;;;;;;5480089;26;20468;-58
2024/04/09 05:54:26;;;;;;;5.63;2.33;;;22.90;44.30;;;;;;5480472;26;20890;-58
2024/04/09 05:56:52;;;;;;;9.67;2.97;;;22.90;44.60;;;;;;5477621;26;20240;-56
2024/04/09 05:59:18;;;;;;;8.83;2.83;;;22.90;44.90;;;;;;5480443;26;20239;-57
2024/04/09 06:01:44;;;;;;;7.87;2.70;;;22.80;45.20;;;;;;5474856;26;20522;-57
2024/04/09 06:04:10;;;;;;;5.87;2.43;;;22.90;45.40;;;;;;5475812;26;20460;-58
2024/04/09 06:06:35;;;;;;;8.83;2.27;;;23.00;45.00;;;;;;5475115;26;20239;-57
2024/04/09 06:09:01;;;;;;;7.87;2.87;;;23.10;45.10;;;;;;5480668;26;20270;-60
2024/04/09 06:11:27;;;;;;;7.30;2.83;;;23.10;45.00;;;;;;5481566;26;20235;-58
2024/04/09 06:13:55;;;;;;;7.10;2.10;;;23.20;44.90;;;;;;5481662;26;20235;-57
2024/04/09 06:16:21;;;;;;;7.20;2.23;;;23.20;44.90;;;;;;5475913;26;20287;-57
2024/04/09 06:18:46;;;;;;;7.00;3.37;;;23.10;45.10;;;;;;5481517;26;20539;-54
2024/04/09 06:21:12;;;;;;;9.87;2.90;;;23.10;45.40;;;;;;5472750;26;20346;-59
2024/04/09 06:23:38;;;;;;;11.47;2.50;;;22.90;45.60;;;;;;5471620;26;20282;-58
2024/04/09 06:26:04;;;;;;;5.80;1.97;;;22.90;45.90;;;;;;5478627;26;20680;-57
2024/04/09 06:28:30;;;;;;;5.90;2.00;;;22.90;45.90;;;;;;5475791;26;20246;-58
2024/04/09 06:30:56;;;;;;;5.10;2.03;;;22.90;46.20;;;;;;5476864;26;20776;-59
2024/04/09 06:33:21;;;;;;;5.70;2.00;;;22.90;46.20;;;;;;5471721;26;20469;-59
2024/04/09 06:35:47;;;;;;;6.50;1.87;;;22.70;46.60;;;;;;5478699;26;20314;-58
2024/04/09 06:38:12;;;;;;;7.60;2.00;;;22.60;46.90;;;;;;5471534;26;20709;-59
2024/04/09 06:40:38;;;;;;;3.90;1.77;;;22.60;47.10;;;;;;5478145;26;20243;-59
2024/04/09 06:43:05;;;;;;;7.80;2.30;;;22.50;47.60;;;;;;5482660;26;20235;-57
2024/04/09 06:45:30;;;;;;;6.77;1.90;;;22.40;48.00;;;;;;5480448;26;20231;-58
2024/04/09 06:47:56;;;;;;;5.40;2.83;;;22.40;48.10;;;;;;5484910;26;20519;-58
2024/04/09 06:50:22;;;;;;;3.87;1.77;;;22.50;48.20;;;;;;5485222;26;20232;-56
2024/04/09 06:52:47;;;;;;;7.33;2.33;;;22.40;48.60;;;;;;5485412;26;20340;-59
2024/04/09 06:55:13;;;;;;;6.40;1.67;;;22.50;48.60;;;;;;5478585;26;20789;-58
2024/04/09 06:57:39;;;;;;;7.27;2.50;;;22.50;48.70;;;;;;5483558;26;20349;-58
2024/04/09 07:00:07;;;;;;;8.37;1.90;;;22.70;48.80;;;;;;5484784;26;20235;-59
2024/04/09 07:02:33;;;;;;;4.80;1.90;;;22.80;48.40;;;;;;5485611;26;20231;-57
2024/04/09 07:04:59;;;;;;;6.63;2.20;;;22.80;48.50;;;;;;5483187;26;20453;-58
2024/04/09 07:07:24;;;;;;;4.97;1.90;;;22.80;48.60;;;;;;5483990;26;20558;-57
2024/04/09 07:09:50;;;;;;;5.47;1.57;;;22.90;48.60;;;;;;5479919;26;20759;-58
2024/04/09 07:12:16;;;;;;;7.20;2.90;;;22.90;48.90;;;;;;5484685;26;20267;-59
2024/04/09 07:14:41;;;;;;;2.90;1.60;;;22.90;49.00;;;;;;5483564;26;20637;-58
2024/04/09 07:17:07;;;;;;;5.70;2.77;;;22.90;49.10;;;;;;5484751;26;20802;-59
2024/04/09 07:19:32;;;;;;;3.90;2.00;;;23.10;48.90;;;;;;5482803;26;20317;-59
2024/04/09 07:21:58;;;;;;;6.50;2.17;;;23.10;49.00;;;;;;5485385;26;20339;-58
2024/04/09 07:24:24;;;;;;;3.97;1.73;;;23.20;49.10;;;;;;5480684;26;20623;-58
2024/04/09 07:26:49;;;;;;;7.10;2.70;;;23.30;48.80;;;;;;5484749;26;20231;-59
2024/04/09 07:29:15;;;;;;;3.60;1.87;;;23.30;48.70;;;;;;5481511;26;20982;-59
2024/04/09 07:31:40;;;;;;;5.77;1.87;;;23.20;49.10;;;;;;5482162;26;20236;-58
2024/04/09 07:34:06;;;;;;;5.87;1.60;;;23.10;49.40;;;;;;5481044;26;20666;-58
2024/04/09 07:36:32;;;;;;;6.50;2.20;;;23.20;49.20;;;;;;5480559;26;20248;-59
2024/04/09 07:38:57;;;;;;;5.53;2.43;;;23.40;49.30;;;;;;5483498;26;20235;-56
2024/04/09 07:41:23;;;;;;;7.10;2.07;;;23.50;49.40;;;;;;5482182;26;20633;-59
2024/04/09 07:43:49;;;;;;;8.50;1.97;;;23.50;49.70;;;;;;5480965;26;20240;-59
2024/04/09 07:46:15;;;;;;;6.13;1.80;;;23.20;50.10;;;;;;5481321;26;21059;-59
2024/04/09 07:48:41;;;;;;;5.43;1.90;;;23.20;50.00;;;;;;5482556;26;20228;-58
2024/04/09 07:51:07;;;;;;;9.70;2.47;;;23.20;49.90;;;;;;5483441;26;20731;-57
2024/04/09 07:53:33;;;;;;;9.57;1.90;;;23.20;50.10;;;;;;5483232;26;20754;-58
2024/04/09 07:56:03;;;;;;;4.73;1.50;;;22.80;50.10;;;;;;5482170;26;20465;-58
2024/04/09 07:58:28;;;;;;;5.47;2.17;;;22.70;50.70;;;;;;5480701;26;20286;-60
2024/04/09 08:00:54;;;;;;;4.20;1.60;;;22.70;51.00;;;;;;5483774;26;20464;-58
2024/04/09 08:03:19;;;;;;;8.40;3.13;;;22.50;51.40;;;;;;5484431;26;20342;-60
2024/04/09 08:05:45;;;;;;;4.00;1.50;;;22.20;52.20;;;;;;5481703;26;20586;-60
2024/04/09 08:08:11;;;;;;;7.10;1.10;;;22.10;50.90;;;;;;5481634;26;20240;-58
2024/04/09 08:10:38;;;;;;;1.73;1.00;;;22.20;49.80;;;;;;5482168;26;20282;-58
2024/04/09 08:13:03;;;;;;;2.90;1.00;;;22.20;49.20;;;;;;5475841;26;20273;-59
2024/04/09 08:15:29;;;;;;;2.00;0.80;;;21.90;48.50;;;;;;5483572;26;20528;-56
2024/04/09 08:17:56;;;;;;;0.70;0.70;;;21.30;49.10;;;;;;5481277;26;20239;-60
2024/04/09 08:20:22;;;;;;;2.73;0.83;;;21.20;49.30;;;;;;5470442;26;20629;-58
2024/04/09 08:22:49;;;;;;;3.30;0.87;;;21.10;49.40;;;;;;5480316;26;20520;-59
2024/04/09 08:25:15;;;;;;;9.90;0.80;;;20.90;49.70;;;;;;5480338;26;20833;-57
2024/04/09 08:27:42;;;;;;;1.47;0.63;;;20.70;49.60;;;;;;5468923;26;20478;-58
2024/04/09 08:30:17;;;;;;;2.00;0.80;;;20.40;49.90;;;;;;5473022;26;20465;-57
2024/04/09 08:32:43;;;;;;;3.23;0.57;;;20.00;51.80;;;;;;5480026;26;20472;-58
2024/04/09 08:35:11;;;;;;;3.13;0.70;;;19.70;50.80;;;;;;5477542;26;20465;-59
2024/04/09 08:37:37;;;;;;;2.30;0.60;;;19.70;50.90;;;;;;5472502;26;20494;-59
2024/04/09 08:40:06;;;;;;;0.70;0.60;;;19.30;49.60;;;;;;5476376;26;20529;-56
2024/04/09 08:42:37;;;;;;;2.90;0.63;;;19.00;49.30;;;;;;5483345;26;20257;-55
2024/04/09 08:45:14;;;;;;;1.67;1.00;;;18.60;49.90;;;;;;5476276;26;21085;-56
2024/04/09 08:47:41;;;;;;;2.27;0.70;;;18.60;49.90;;;;;;5478625;26;20536;-57
2024/04/09 08:50:07;;;;;;;2.23;0.70;;;18.30;50.20;;;;;;5480325;26;20460;-58
2024/04/09 08:52:34;;;;;;;2.60;0.80;;;18.20;50.20;;;;;;5480901;26;21026;-57
2024/04/09 08:55:00;;;;;;;4.50;0.90;;;17.70;49.90;;;;;;5480465;26;20465;-58
2024/04/09 08:57:30;;;;;;;2.37;0.60;;;17.20;50.00;;;;;;5476982;26;20488;-56
2024/04/09 08:59:57;;;;;;;1.90;0.60;;;17.20;50.90;;;;;;5474689;26;20476;-55
2024/04/09 09:02:22;;;;;;;1.00;0.60;;;17.00;51.10;;;;;;5481928;26;21063;-58
2024/04/09 09:04:48;;;;;;;1.07;0.60;;;16.70;51.40;;;;;;5480318;26;20457;-58
2024/04/09 09:07:18;;;;;;;0.53;0.53;;;16.70;51.90;;;;;;5482284;26;20228;-57
2024/04/09 09:09:46;;;;;;;1.83;0.50;;;16.50;51.90;;;;;;5477831;26;20244;-58
2024/04/09 09:12:11;;;;;;;2.50;0.67;;;16.40;52.40;;;;;;5472408;26;20464;-59
2024/04/09 09:14:37;;;;;;;4.33;0.80;;;16.20;51.90;;;;;;5476024;26;20519;-55
2024/04/09 09:17:09;;;;;;;1.93;0.70;;;16.30;52.40;;;;;;5479775;26;20239;-56
2024/04/09 09:19:36;;;;;;;2.87;0.70;;;16.50;51.90;;;;;;5479855;26;20818;-57
2024/04/09 09:22:06;;;;;;;0.60;0.50;;;16.40;50.80;;;;;;5481856;26;21214;-54
2024/04/09 09:24:32;;;;;;;1.33;0.50;;;16.10;51.00;;;;;;5477878;26;20512;-57
2024/04/09 09:27:02;;;;;;;1.77;0.60;;;16.00;50.90;;;;;;5478592;26;21095;-55
2024/04/09 09:29:28;;;;;;;1.83;0.70;;;15.90;51.00;;;;;;5475514;26;21070;-55
2024/04/09 09:31:54;;;;;;;1.73;0.60;;;16.00;51.50;;;;;;5480118;26;21140;-56
2024/04/09 09:34:43;;;;;;;1.80;0.70;;;16.30;51.50;;;;;;5480468;26;20469;-57
2024/04/09 09:37:10;;;;;;;3.43;0.87;;;16.40;51.60;;;;;;5455093;26;20283;-58
2024/04/09 09:39:40;;;;;;;1.30;0.77;;;16.40;51.60;;;;;;5480232;26;20687;-55
2024/04/09 09:42:09;;;;;;;2.93;0.77;;;16.50;51.30;;;;;;5469045;26;21087;-57
2024/04/09 09:44:36;;;;;;;0.80;0.70;;;16.30;50.90;;;;;;5476714;26;20594;-55
2024/04/09 09:47:03;;;;;;;3.53;1.30;;;16.40;50.80;;;;;;5464117;26;20552;-54
2024/04/09 09:49:30;;;;;;;1.37;0.93;;;16.30;50.00;;;;;;5476897;26;20524;-56
2024/04/09 09:51:56;;;;;;;4.73;1.23;;;16.20;50.50;;;;;;5472251;26;20461;-56
2024/04/09 09:54:25;;;;;;;1.27;0.90;;;16.10;50.40;;;;;;5475211;26;21085;-56
2024/04/09 09:57:02;;;;;;;1.23;0.63;;;15.80;50.80;;;;;;5465100;26;20548;-59
2024/04/09 09:59:39;;;;;;;4.30;0.80;;;16.00;50.80;;;;;;5479205;26;20535;-57
2024/04/09 10:02:06;;;;;;;2.57;0.80;;;16.00;50.50;;;;;;5470081;26;20468;-57
2024/04/09 10:04:32;;;;;;;1.10;0.70;;;16.00;50.30;;;;;;5475557;26;20496;-56
2024/04/09 10:06:59;;;;;;;2.80;0.90;;;15.90;50.10;;;;;;5482187;26;20817;-53
2024/04/09 10:09:50;;;;;;;1.80;0.97;;;15.90;50.50;;;;;;5480733;26;20739;-58
2024/04/09 10:12:28;;;;;;;1.43;0.73;;;15.90;50.20;;;;;;5472792;26;20469;-55
2024/04/09 10:15:09;;;;;;;2.60;0.90;;;15.80;50.50;;;;;;5477470;26;20476;-57
2024/04/09 10:17:49;;;;;;;2.97;0.70;;;15.80;51.30;;;;;;5484273;26;21068;-56
2024/04/09 10:20:26;;;;;;;1.03;0.60;;;16.00;50.80;;;;;;5472998;26;20469;-57
2024/04/09 10:22:53;;;;;;;2.73;1.70;;;15.80;50.90;;;;;;5475376;26;20512;-57
2024/04/09 10:25:25;;;;;;;1.90;0.70;;;15.80;51.70;;;;;;5474438;26;20565;-55
2024/04/09 10:28:03;;;;;;;1.10;0.60;;;15.70;51.20;;;;;;5478884;26;20924;-54
2024/04/09 10:30:32;;;;;;;0.80;0.67;;;15.80;51.60;;;;;;5483311;26;20464;-56
2024/04/09 10:33:00;;;;;;;0.97;0.80;;;15.80;51.70;;;;;;5483643;26;20906;-58
2024/04/09 10:35:26;;;;;;;1.10;0.80;;;15.80;51.20;;;;;;5484112;26;20465;-58
2024/04/09 10:37:54;;;;;;;1.00;0.60;;;15.70;51.50;;;;;;5480073;26;20526;-56
2024/04/09 10:40:21;;;;;;;0.97;0.77;;;15.90;51.50;;;;;;5484632;26;20294;-55
2024/04/09 10:42:47;;;;;;;1.03;0.60;;;16.10;51.20;;;;;;5481528;26;20589;-57
2024/04/09 10:45:13;;;;;;;0.70;0.57;;;16.10;51.00;;;;;;5484706;26;20588;-58
2024/04/09 10:47:38;;;;;;;1.00;0.50;;;16.20;51.30;;;;;;5474760;26;20952;-55
2024/04/09 10:50:05;;;;;;;0.80;0.70;;;16.30;51.20;;;;;;5483499;26;20224;-55
2024/04/09 10:52:32;;;;;;;0.70;0.70;;;16.40;50.90;;;;;;5484800;26;20320;-56
2024/04/09 10:55:06;;;;;;;1.00;0.70;;;16.70;51.00;;;;;;5482855;26;20476;-58
2024/04/09 10:57:32;;;;;;;0.80;0.80;;;16.70;50.80;;;;;;5476586;26;20481;-54
2024/04/09 11:00:14;;;;;;;1.10;0.80;;;16.70;50.50;;;;;;5484355;26;21014;-55
2024/04/09 11:02:42;;;;;;;1.53;0.70;;;16.70;50.70;;;;;;5474702;26;20339;-58
2024/04/09 11:05:11;;;;;;;3.13;0.80;;;16.50;50.50;;;;;;5484659;26;21156;-58
2024/04/09 11:07:42;;;;;;;2.40;0.90;;;15.90;50.70;;;;;;5483373;26;20848;-57
2024/04/09 11:10:12;;;;;;;1.57;0.70;;;16.00;51.20;;;;;;5479347;26;20480;-57
2024/04/09 11:12:43;;;;;;;3.70;0.80;;;15.90;50.90;;;;;;5480977;26;20544;-57
2024/04/09 11:15:10;;;;;;;0.70;0.60;;;15.90;51.10;;;;;;5483061;26;20825;-55
2024/04/09 11:17:37;;;;;;;0.80;0.80;;;16.00;50.90;;;;;;5481741;26;20640;-58
2024/04/09 11:20:11;;;;;;;2.37;0.80;;;15.80;50.80;;;;;;5478172;26;20519;-55
2024/04/09 11:22:49;;;;;;;3.03;0.60;;;15.90;50.70;;;;;;5478835;26;20867;-56
2024/04/09 11:25:17;;;;;;;1.73;0.73;;;16.00;50.10;;;;;;5483134;26;20529;-58
2024/04/09 11:27:48;;;;;;;1.50;0.70;;;16.00;50.20;;;;;;5476928;26;20815;-55
2024/04/09 11:30:24;;;;;;;5.57;0.90;;;15.90;50.50;;;;;;5481154;26;20935;-57
2024/04/09 11:32:53;;;;;;;1.83;0.90;;;15.80;50.90;;;;;;5477944;26;20962;-57
2024/04/09 11:35:21;;;;;;;2.40;1.07;;;15.90;50.20;;;;;;5481982;26;20464;-56
2024/04/09 11:37:57;;;;;;;2.57;0.83;;;16.00;49.80;;;;;;5479097;26;20553;-57
2024/04/09 11:40:24;;;;;;;2.40;0.80;;;16.00;50.00;;;;;;5463907;26;20470;-58
2024/04/09 11:42:53;;;;;;;1.23;0.83;;;16.00;49.50;;;;;;5476846;26;20472;-57
2024/04/09 11:45:29;;;;;;;0.97;0.60;;;15.90;49.50;;;;;;5484870;26;20477;-58
2024/04/09 11:47:55;;;;;;;2.10;0.80;;;15.80;49.70;;;;;;5483631;26;20573;-56
2024/04/09 11:50:23;;;;;;;1.33;0.60;;;15.80;50.10;;;;;;5481618;26;20512;-55
2024/04/09 11:52:49;;;;;;;0.60;0.57;;;15.70;49.80;;;;;;5483757;26;20460;-58
2024/04/09 11:55:14;;;;;;;2.20;0.60;;;15.80;49.40;;;;;;5483845;26;20585;-57
2024/04/09 11:57:41;;;;;;;2.20;0.77;;;15.80;49.70;;;;;;5480971;26;20568;-58
2024/04/09 12:00:12;;;;;;;1.00;0.70;;;16.10;49.40;;;;;;5479866;26;20235;-58
2024/04/09 12:02:49;;;;;;;1.10;0.60;;;16.40;48.80;;;;;;5481502;26;20484;-55
2024/04/09 12:05:15;;;;;;;2.60;0.90;;;16.50;48.40;;;;;;5478211;26;20574;-57
2024/04/09 12:07:41;;;;;;;1.20;0.70;;;16.60;47.80;;;;;;5475334;26;20559;-56
2024/04/09 12:10:08;;;;;;;2.40;0.80;;;16.60;47.70;;;;;;5476855;26;20680;-56
2024/04/09 12:12:34;;;;;;;2.97;0.53;;;16.60;47.80;;;;;;5479887;26;20468;-57
2024/04/09 12:15:00;;;;;;;1.43;0.70;;;16.60;47.50;;;;;;5482127;26;20529;-58
2024/04/09 12:17:26;;;;;;;0.60;0.50;;;16.00;47.50;;;;;;5480117;26;20477;-58
2024/04/09 12:19:52;;;;;;;2.13;0.80;;;16.00;48.30;;;;;;5479835;26;20527;-54
2024/04/09 12:22:18;;;;;;;2.90;0.93;;;15.80;48.20;;;;;;5478720;26;20325;-58
2024/04/09 12:24:44;;;;;;;0.90;0.63;;;15.60;48.80;;;;;;5480553;26;20601;-56
2024/04/09 12:27:10;;;;;;;1.90;1.10;;;15.60;48.90;;;;;;5483635;26;20505;-57
2024/04/09 12:29:35;;;;;;;0.87;0.70;;;15.20;49.20;;;;;;5480222;26;20477;-58
2024/04/09 12:32:02;;;;;;;0.70;0.60;;;15.20;49.40;;;;;;5481014;26;20239;-56
2024/04/09 12:34:29;;;;;;;0.77;0.70;;;15.20;48.90;;;;;;5482497;26;20294;-55
2024/04/09 12:36:55;;;;;;;1.20;0.77;;;15.40;49.30;;;;;;5480717;26;20481;-56
2024/04/09 12:39:20;;;;;;;0.60;0.50;;;15.50;48.70;;;;;;5479453;26;20715;-57
2024/04/09 12:41:47;;;;;;;0.60;0.50;;;15.50;48.70;;;;;;5482879;26;20231;-53
2024/04/09 12:44:12;;;;;;;1.53;0.70;;;15.50;48.60;;;;;;5480619;26;20274;-54